Altoona, Kansas
Current Conditions -  °F | °C
As of 4:23 AM on Saturday 22 Nov 2014 (Local Time) from KCNU Reporting Station
Haze Haze  
Wind Chill: 54°   Ceiling: 300
Heat Index: 54°   Visibility: 3mi
Dew Point: 54°   Wind: 15mph
Humidity: 100%   Direction: 190°S
Pressure: 30.03"   Gusts: NA
Location:  37.52°N, 95.66°W
Report Text: KCNU 221023Z AUTO 19013KT 3SM BR OVC003 12/12 A3003 RMK AO2 T01220122
Loading
Personal Weather Stations






























Interactive Weather Map New forecast layout! Learn more

10-Day Weather Forecast

Advertisements
Track Severe Weather on mobile